createdAt,value
2018-02-08T00:00:30.615Z,95.47
2018-02-08T00:02:58.062Z,92.47
2018-02-08T00:05:25.554Z,90.60
2018-02-08T00:07:53.013Z,105.17
2018-02-08T00:10:20.458Z,87.97
2018-02-08T00:12:47.922Z,101.87
2018-02-08T00:15:15.374Z,88.33
2018-02-08T00:17:42.875Z,90.03
2018-02-08T00:20:10.350Z,85.27
2018-02-08T00:22:45.785Z,99.67
2018-02-08T00:25:13.259Z,99.57
2018-02-08T00:27:40.713Z,92.67
2018-02-08T00:30:08.162Z,90.30
2018-02-08T00:32:35.606Z,91.10
2018-02-08T00:35:03.051Z,88.00
2018-02-08T00:37:30.511Z,92.70
2018-02-08T00:39:57.973Z,99.03
2018-02-08T00:42:25.418Z,98.07
2018-02-08T00:44:52.866Z,88.47
2018-02-08T00:47:20.343Z,87.53
2018-02-08T00:49:47.787Z,104.93
2018-02-08T00:52:15.225Z,97.77
2018-02-08T00:54:42.671Z,97.63
2018-02-08T00:57:10.119Z,90.83
2018-02-08T00:59:37.558Z,86.73
2018-02-08T01:02:05.006Z,92.83
2018-02-08T01:04:32.467Z,86.10
2018-02-08T01:06:59.922Z,87.00
2018-02-08T01:09:27.371Z,89.60
2018-02-08T01:11:54.834Z,84.57
2018-02-08T01:14:22.808Z,85.47
2018-02-08T01:16:50.269Z,83.13
2018-02-08T01:19:17.731Z,81.83
2018-02-08T01:21:45.183Z,90.13
2018-02-08T01:24:12.630Z,81.83
2018-02-08T01:26:40.070Z,89.57
2018-02-08T01:29:07.529Z,85.77
2018-02-08T01:31:34.976Z,82.33
2018-02-08T01:34:02.440Z,83.60
2018-02-08T01:36:29.882Z,90.97
2018-02-08T01:38:57.332Z,86.73
2018-02-08T01:41:24.778Z,90.17
2018-02-08T01:43:52.271Z,87.40
2018-02-08T01:46:19.710Z,95.93
2018-02-08T01:48:47.160Z,108.63
2018-02-08T01:51:14.606Z,78.73
2018-02-08T01:53:42.042Z,92.93
2018-02-08T01:56:09.513Z,97.33
2018-02-08T01:58:36.957Z,93.43
2018-02-08T02:01:04.410Z,86.37
2018-02-08T02:03:31.849Z,89.77
2018-02-08T02:05:59.311Z,84.07
2018-02-08T02:08:26.745Z,90.60
2018-02-08T02:10:54.233Z,81.20
2018-02-08T02:13:21.669Z,91.77
2018-02-08T02:15:49.105Z,84.53
2018-02-08T02:18:16.555Z,89.43
2018-02-08T02:20:44.006Z,86.77
2018-02-08T02:23:11.449Z,91.17
2018-02-08T02:25:38.900Z,91.57
2018-02-08T02:28:06.345Z,98.53
2018-02-08T02:30:33.788Z,83.97
2018-02-08T02:33:01.242Z,85.60
2018-02-08T02:35:28.699Z,85.97
2018-02-08T02:37:56.165Z,85.83
2018-02-08T02:40:23.613Z,83.23
2018-02-08T02:42:51.067Z,88.13
2018-02-08T02:45:18.538Z,79.97
2018-02-08T02:47:45.983Z,90.17
2018-02-08T02:50:13.434Z,83.27
2018-02-08T02:52:40.871Z,94.63
2018-02-08T02:55:08.324Z,81.87
2018-02-08T02:57:35.758Z,88.13
2018-02-08T03:00:03.222Z,93.40
2018-02-08T03:02:30.662Z,93.83
2018-02-08T03:04:58.707Z,91.03
2018-02-08T03:07:26.149Z,92.10
2018-02-08T03:09:53.593Z,89.27
2018-02-08T03:12:21.053Z,85.13
2018-02-08T03:14:48.493Z,84.33
2018-02-08T03:17:15.928Z,89.47
2018-02-08T03:19:43.365Z,78.97
2018-02-08T03:22:10.822Z,83.10
2018-02-08T03:24:38.257Z,93.40
2018-02-08T03:27:05.714Z,84.43
2018-02-08T03:29:33.147Z,87.83
2018-02-08T03:32:00.608Z,79.67
2018-02-08T03:34:28.072Z,82.23
2018-02-08T03:36:55.524Z,86.90
2018-02-08T03:39:22.989Z,91.17
2018-02-08T03:41:50.454Z,90.37
2018-02-08T03:44:17.884Z,87.23
2018-02-08T03:46:45.330Z,87.90
2018-02-08T03:49:12.770Z,103.33
2018-02-08T03:51:40.247Z,81.53
2018-02-08T03:54:07.703Z,88.33
2018-02-08T03:56:35.132Z,91.30
2018-02-08T03:59:02.588Z,95.00
2018-02-08T04:01:30.043Z,92.73
2018-02-08T04:03:57.530Z,89.17
2018-02-08T04:06:24.966Z,87.03
2018-02-08T04:08:52.424Z,89.60
2018-02-08T04:11:19.859Z,80.53
2018-02-08T04:13:47.312Z,85.03
2018-02-08T04:16:14.756Z,79.43
2018-02-08T04:18:42.242Z,87.43
2018-02-08T04:21:09.691Z,75.27
2018-02-08T04:23:37.132Z,81.00
2018-02-08T04:26:04.582Z,86.80
2018-02-08T04:28:32.029Z,94.30
2018-02-08T04:30:59.479Z,85.00
2018-02-08T04:33:26.912Z,79.63
2018-02-08T04:35:54.375Z,86.10
2018-02-08T04:41:48.175Z,98.07
2018-02-08T04:44:27.450Z,85.80
2018-02-08T04:47:07.001Z,88.23
2018-02-08T04:49:34.562Z,85.23
2018-02-08T04:52:02.056Z,85.53
2018-02-08T04:54:29.515Z,83.43
2018-02-08T04:56:57.021Z,93.67
2018-02-08T04:59:24.516Z,100.10
2018-02-08T05:01:52.000Z,83.90
2018-02-08T05:04:19.580Z,86.37
2018-02-08T05:06:47.049Z,88.83
2018-02-08T05:09:14.524Z,81.93
2018-02-08T05:11:42.021Z,93.20
2018-02-08T05:14:09.492Z,93.47
2018-02-08T05:16:37.051Z,88.10
2018-02-08T05:19:04.616Z,92.33
2018-02-08T05:21:32.113Z,90.90
2018-02-08T05:23:59.616Z,81.67
2018-02-08T05:26:27.091Z,104.93
2018-02-08T05:28:54.749Z,83.37
2018-02-08T05:31:22.235Z,105.03
2018-02-08T05:33:49.728Z,87.80
2018-02-08T05:36:17.201Z,92.23
2018-02-08T05:38:44.684Z,112.63
2018-02-08T05:41:12.158Z,113.17
2018-02-08T05:43:39.659Z,89.47
2018-02-08T05:46:07.126Z,89.03
2018-02-08T05:48:34.668Z,87.87
2018-02-08T05:51:02.254Z,89.20
2018-02-08T05:53:29.734Z,86.10
2018-02-08T05:55:57.240Z,95.80
2018-02-08T05:58:24.714Z,103.00
2018-02-08T06:00:52.191Z,86.90
2018-02-08T06:03:19.679Z,97.00
2018-02-08T06:05:47.192Z,108.80
2018-02-08T06:08:14.674Z,98.87
2018-02-08T06:10:42.141Z,96.47
2018-02-08T06:13:09.624Z,88.57
2018-02-08T06:15:37.105Z,90.93
2018-02-08T06:18:04.593Z,104.50
2018-02-08T06:20:32.115Z,106.50
2018-02-08T06:22:59.592Z,96.93
2018-02-08T06:25:27.081Z,97.43
2018-02-08T06:27:54.628Z,106.93
2018-02-08T06:30:22.141Z,92.63
2018-02-08T06:32:49.664Z,105.87
2018-02-08T06:35:17.413Z,90.80
2018-02-08T06:37:44.890Z,94.20
2018-02-08T06:40:12.365Z,102.43
2018-02-08T06:42:39.840Z,95.43
2018-02-08T06:45:07.319Z,105.50
2018-02-08T06:47:34.793Z,85.87
2018-02-08T06:50:02.300Z,108.80
2018-02-08T06:52:29.767Z,94.77
2018-02-08T06:54:57.322Z,88.80
2018-02-08T06:57:24.783Z,94.80
2018-02-08T06:59:52.327Z,112.57
2018-02-08T07:02:19.799Z,116.97
2018-02-08T07:04:47.386Z,106.23
2018-02-08T07:07:14.949Z,94.77
2018-02-08T07:09:42.419Z,105.13
2018-02-08T07:12:10.014Z,98.77
2018-02-08T07:14:37.573Z,101.10
2018-02-08T07:17:05.144Z,98.50
2018-02-08T07:19:32.604Z,98.43
2018-02-08T07:22:00.077Z,110.80
2018-02-08T07:24:27.660Z,95.57
2018-02-08T07:26:55.227Z,101.10
2018-02-08T07:29:22.723Z,93.67
2018-02-08T07:31:50.263Z,122.33
2018-02-08T07:34:17.849Z,107.40
2018-02-08T07:36:45.452Z,95.70
2018-02-08T07:39:12.941Z,100.20
2018-02-08T07:41:40.441Z,95.47
2018-02-08T07:44:07.934Z,97.93
2018-02-08T07:46:35.537Z,96.97
2018-02-08T07:49:03.496Z,98.93
2018-02-08T07:51:30.973Z,111.03
2018-02-08T07:53:59.482Z,94.50
2018-02-08T07:56:27.042Z,101.57
2018-02-08T07:58:54.551Z,118.67
2018-02-08T08:01:22.054Z,101.47
2018-02-08T08:03:49.620Z,108.97
2018-02-08T08:06:17.083Z,95.70
2018-02-08T08:08:44.566Z,96.73
2018-02-08T08:11:12.053Z,89.83
2018-02-08T08:13:39.565Z,93.07
2018-02-08T08:16:07.060Z,101.33
2018-02-08T08:18:34.547Z,108.27
2018-02-08T08:21:02.041Z,102.03
2018-02-08T08:23:29.545Z,88.87
2018-02-08T08:25:57.033Z,96.23
2018-02-08T08:28:24.513Z,110.67
2018-02-08T08:30:51.999Z,109.90
2018-02-08T08:33:19.564Z,91.57
2018-02-08T08:35:47.182Z,92.50
2018-02-08T08:38:14.683Z,100.57
2018-02-08T08:40:42.202Z,87.90
2018-02-08T08:43:09.707Z,100.67
2018-02-08T08:45:37.247Z,109.43
2018-02-08T08:48:04.749Z,95.23
2018-02-08T08:50:32.229Z,94.17
2018-02-08T08:52:59.740Z,88.70
2018-02-08T08:55:27.241Z,92.07
2018-02-08T08:57:54.767Z,94.10
2018-02-08T09:00:22.255Z,93.17
2018-02-08T09:02:49.761Z,89.13
2018-02-08T09:05:17.263Z,90.90
2018-02-08T09:07:44.838Z,96.90
2018-02-08T09:10:12.363Z,103.37
2018-02-08T09:12:39.853Z,88.27
2018-02-08T09:15:07.374Z,94.40
2018-02-08T09:17:34.901Z,98.90
2018-02-08T09:20:02.410Z,93.43
2018-02-08T09:22:29.930Z,99.30
2018-02-08T09:24:58.278Z,99.03
2018-02-08T09:27:25.867Z,92.70
2018-02-08T09:29:53.460Z,97.20
2018-02-08T09:32:21.173Z,99.20
2018-02-08T09:34:48.750Z,94.50
2018-02-08T09:37:16.399Z,96.03
2018-02-08T09:39:43.903Z,85.77
2018-02-08T09:42:11.392Z,103.30
2018-02-08T09:44:39.000Z,103.03
2018-02-08T09:47:06.792Z,100.50
2018-02-08T09:49:34.285Z,104.60
2018-02-08T09:52:01.797Z,94.70
2018-02-08T09:54:29.655Z,97.07
2018-02-08T09:56:57.222Z,93.83
2018-02-08T09:59:25.713Z,86.27
2018-02-08T10:01:53.214Z,109.90
2018-02-08T10:04:20.683Z,94.13
2018-02-08T10:06:48.170Z,98.03
2018-02-08T10:09:15.641Z,96.87
2018-02-08T10:11:43.123Z,103.03
2018-02-08T10:14:10.597Z,87.67
2018-02-08T10:16:38.110Z,101.00
2018-02-08T10:19:05.577Z,105.30
2018-02-08T10:21:33.127Z,92.67
2018-02-08T10:24:00.680Z,101.10
2018-02-08T10:26:28.209Z,101.27
2018-02-08T10:28:55.773Z,90.73
2018-02-08T10:31:23.225Z,98.73
2018-02-08T10:33:50.722Z,85.80
2018-02-08T10:36:18.217Z,92.37
2018-02-08T10:38:45.738Z,90.87
2018-02-08T10:41:13.212Z,91.63
2018-02-08T10:43:40.798Z,104.13
2018-02-08T10:46:08.283Z,106.90
2018-02-08T10:48:35.745Z,98.13
2018-02-08T10:51:03.214Z,96.13
2018-02-08T10:53:30.683Z,97.60
2018-02-08T10:55:58.196Z,85.43
2018-02-08T10:58:25.716Z,86.23
2018-02-08T11:00:53.210Z,89.10
2018-02-08T11:03:20.707Z,90.27
2018-02-08T11:05:48.193Z,84.93
2018-02-08T11:08:15.657Z,89.00
2018-02-08T11:10:43.150Z,87.83
2018-02-08T11:13:10.617Z,84.53
2018-02-08T11:15:38.115Z,81.30
2018-02-08T11:18:05.591Z,78.00
2018-02-08T11:20:33.153Z,83.87
2018-02-08T11:23:00.650Z,79.00
2018-02-08T11:25:28.123Z,80.53
2018-02-08T11:27:55.614Z,90.83
2018-02-08T11:30:23.121Z,93.33
2018-02-08T11:32:50.619Z,97.63
2018-02-08T11:35:18.201Z,106.50
2018-02-08T11:37:45.703Z,83.03
2018-02-08T11:40:13.203Z,63.77
2018-02-08T11:42:40.744Z,77.63
2018-02-08T11:47:42.158Z,79.60
2018-02-08T11:50:09.645Z,67.27
2018-02-08T11:52:37.115Z,71.97
2018-02-08T11:55:04.622Z,75.73
2018-02-08T11:57:32.099Z,69.30
2018-02-08T11:59:59.611Z,68.00
2018-02-08T12:02:27.166Z,62.00
2018-02-08T12:04:54.658Z,59.40
2018-02-08T12:07:22.121Z,60.27
2018-02-08T12:09:49.713Z,68.33
2018-02-08T12:12:17.205Z,70.30
2018-02-08T12:14:44.689Z,56.13
2018-02-08T12:17:12.235Z,53.37
2018-02-08T12:19:39.722Z,50.23
2018-02-08T12:22:07.182Z,47.93
2018-02-08T12:24:34.664Z,74.17
2018-02-08T12:27:02.434Z,58.47
2018-02-08T12:29:29.930Z,53.90
2018-02-08T12:31:57.409Z,48.97
2018-02-08T12:34:24.880Z,58.00
2018-02-08T12:36:52.354Z,55.73
2018-02-08T12:39:19.824Z,49.73
2018-02-08T12:41:47.341Z,49.93
2018-02-08T12:44:14.801Z,60.70
2018-02-08T12:46:42.382Z,52.77
2018-02-08T12:49:09.952Z,62.80
2018-02-08T12:51:37.480Z,67.53
2018-02-08T12:54:04.938Z,74.60
2018-02-08T12:56:32.483Z,65.17
2018-02-08T12:58:59.953Z,72.10
2018-02-08T13:01:27.404Z,77.10
2018-02-08T13:03:54.879Z,66.33
2018-02-08T13:06:22.345Z,56.03
2018-02-08T13:08:49.928Z,60.30
2018-02-08T13:11:17.516Z,72.40
2018-02-08T13:13:44.986Z,54.73
2018-02-08T13:16:12.558Z,53.83
2018-02-08T13:18:40.013Z,50.87
2018-02-08T13:21:07.649Z,49.80
2018-02-08T13:23:35.128Z,53.40
2018-02-08T13:26:02.600Z,62.53
2018-02-08T13:28:30.091Z,53.57
2018-02-08T13:30:57.608Z,48.90
2018-02-08T13:33:25.090Z,46.70
2018-02-08T13:35:52.603Z,50.97
2018-02-08T13:38:20.113Z,44.23
2018-02-08T13:40:49.994Z,52.27
2018-02-08T13:43:17.504Z,49.10
2018-02-08T13:45:44.991Z,53.83
2018-02-08T13:48:14.940Z,53.97
2018-02-08T13:50:59.224Z,46.63
2018-02-08T13:56:31.470Z,52.57
2018-02-08T13:59:00.817Z,57.00
2018-02-08T14:01:32.064Z,52.70
2018-02-08T14:03:59.575Z,52.07
2018-02-08T14:06:27.069Z,43.80
2018-02-08T14:08:54.613Z,44.50
2018-02-08T14:11:22.107Z,54.83
2018-02-08T14:13:49.571Z,50.13
2018-02-08T14:16:17.050Z,56.20
2018-02-08T14:18:44.578Z,49.43
2018-02-08T14:21:12.050Z,48.60
2018-02-08T14:23:39.501Z,44.80
2018-02-08T14:26:06.985Z,57.80
2018-02-08T14:28:34.479Z,49.03
2018-02-08T14:31:02.095Z,53.43
2018-02-08T14:33:29.632Z,48.50
2018-02-08T14:35:57.200Z,52.53
2018-02-08T14:38:24.664Z,50.17
2018-02-08T14:40:52.243Z,49.53
2018-02-08T14:43:19.719Z,43.87
2018-02-08T14:45:47.193Z,49.67
2018-02-08T14:48:14.764Z,51.83
2018-02-08T14:50:42.233Z,45.77
2018-02-08T14:53:09.712Z,45.53
2018-02-08T14:55:37.266Z,43.40
2018-02-08T14:58:04.745Z,48.30
2018-02-08T15:00:32.216Z,56.07
2018-02-08T15:02:59.710Z,47.83
2018-02-08T15:05:27.186Z,52.93
2018-02-08T15:07:54.669Z,48.73
2018-02-08T15:10:22.129Z,50.10
2018-02-08T15:12:49.704Z,51.87
2018-02-08T15:15:17.234Z,51.63
2018-02-08T15:17:44.705Z,50.50
2018-02-08T15:20:12.168Z,49.93
2018-02-08T15:22:39.646Z,53.47
2018-02-08T15:25:07.140Z,53.30
2018-02-08T15:27:34.634Z,53.60
2018-02-08T15:30:04.933Z,54.13
2018-02-08T15:32:32.498Z,53.73
2018-02-08T15:35:00.012Z,43.70
2018-02-08T15:37:27.540Z,52.57
2018-02-08T15:39:54.991Z,54.77
2018-02-08T15:42:22.478Z,46.43
2018-02-08T15:44:49.950Z,52.30
2018-02-08T15:47:17.422Z,58.47
2018-02-08T15:49:44.928Z,57.67
2018-02-08T15:52:12.417Z,60.03
2018-02-08T15:54:39.888Z,61.00
2018-02-08T15:57:07.395Z,57.20
2018-02-08T15:59:34.929Z,54.57
2018-02-08T16:02:02.395Z,52.80
2018-02-08T16:04:29.909Z,56.67
2018-02-08T16:06:57.365Z,52.93
2018-02-08T16:09:24.853Z,49.13
2018-02-08T16:11:52.309Z,49.57
2018-02-08T16:14:19.895Z,64.47
2018-02-08T16:16:47.360Z,51.87
2018-02-08T16:19:14.863Z,56.33
2018-02-08T16:21:42.391Z,50.60
2018-02-08T16:24:09.873Z,53.20
2018-02-08T16:26:37.443Z,55.17
2018-02-08T16:29:05.041Z,50.33
2018-02-08T16:31:32.553Z,52.47
2018-02-08T16:34:00.083Z,59.07
2018-02-08T16:36:27.632Z,55.07
2018-02-08T16:38:55.237Z,55.83
2018-02-08T16:41:22.790Z,51.57
2018-02-08T16:43:50.258Z,58.77
2018-02-08T16:46:17.747Z,62.50
2018-02-08T16:48:45.229Z,48.10
2018-02-08T16:51:12.840Z,50.30
2018-02-08T16:53:40.314Z,47.03
2018-02-08T16:56:07.802Z,52.07
2018-02-08T16:58:35.369Z,50.90
2018-02-08T17:01:02.888Z,54.17
2018-02-08T17:03:30.388Z,54.63
2018-02-08T17:05:57.857Z,51.87
2018-02-08T17:08:25.365Z,56.87
2018-02-08T17:10:52.845Z,55.87
2018-02-08T17:13:20.336Z,57.23
2018-02-08T17:15:47.811Z,56.20
2018-02-08T17:18:15.322Z,55.33
2018-02-08T17:20:42.793Z,53.20
2018-02-08T17:23:10.278Z,51.50
2018-02-08T17:25:37.761Z,56.47
2018-02-08T17:28:05.311Z,49.07
2018-02-08T17:30:32.739Z,54.83
2018-02-08T17:33:00.295Z,52.73
2018-02-08T17:35:27.901Z,52.67
2018-02-08T17:37:55.400Z,53.77
2018-02-08T17:40:22.866Z,51.27
2018-02-08T17:42:50.340Z,56.73
2018-02-08T17:45:17.853Z,63.00
2018-02-08T17:47:45.337Z,56.17
2018-02-08T17:50:12.849Z,57.27
2018-02-08T17:52:40.414Z,50.17
2018-02-08T17:55:07.984Z,48.90
2018-02-08T17:57:35.470Z,54.40
2018-02-08T18:00:02.948Z,55.83
2018-02-08T18:02:30.426Z,52.90
2018-02-08T18:04:57.897Z,57.77
2018-02-08T18:07:25.393Z,53.77
2018-02-08T18:09:52.881Z,56.40
2018-02-08T18:12:20.392Z,51.57
2018-02-08T18:14:47.855Z,61.27
2018-02-08T18:17:15.620Z,56.83
2018-02-08T18:19:43.133Z,58.63
2018-02-08T18:22:11.880Z,52.87
2018-02-08T18:24:39.345Z,52.97
2018-02-08T18:27:06.841Z,48.40
2018-02-08T18:29:34.414Z,55.77
2018-02-08T18:32:01.886Z,58.00
2018-02-08T18:34:29.385Z,67.03
2018-02-08T18:36:57.026Z,58.83
2018-02-08T18:39:24.591Z,53.60
2018-02-08T18:41:52.055Z,64.93
2018-02-08T18:44:19.633Z,59.17
2018-02-08T18:46:47.232Z,56.47
2018-02-08T18:49:14.790Z,55.47
2018-02-08T18:51:42.361Z,57.40
2018-02-08T18:54:09.831Z,58.60
2018-02-08T18:56:37.309Z,54.10
2018-02-08T18:59:04.871Z,56.23
2018-02-08T19:01:32.366Z,61.93
2018-02-08T19:03:59.911Z,64.10
2018-02-08T19:06:27.500Z,62.27
2018-02-08T19:08:54.993Z,57.37
2018-02-08T19:11:22.498Z,59.63
2018-02-08T19:13:49.964Z,60.53
2018-02-08T19:16:17.438Z,66.07
2018-02-08T19:18:44.994Z,57.70
2018-02-08T19:21:12.475Z,67.90
2018-02-08T19:23:39.978Z,57.40
2018-02-08T19:26:07.449Z,58.50
2018-02-08T19:28:34.929Z,55.73
2018-02-08T19:31:02.501Z,56.77
2018-02-08T19:33:29.980Z,53.70
2018-02-08T19:35:57.472Z,65.10
2018-02-08T19:38:24.953Z,63.37
2018-02-08T19:40:52.420Z,55.77
2018-02-08T19:43:19.950Z,57.33
2018-02-08T19:45:47.460Z,57.67
2018-02-08T19:48:14.961Z,55.10
2018-02-08T19:50:42.463Z,68.03
2018-02-08T19:53:09.941Z,54.37
2018-02-08T19:55:37.426Z,58.73
2018-02-08T19:58:04.921Z,62.23
2018-02-08T20:00:32.421Z,64.90
2018-02-08T20:02:59.895Z,66.00
2018-02-08T20:05:27.372Z,64.47
2018-02-08T20:07:54.842Z,57.87
2018-02-08T20:10:22.313Z,62.23
2018-02-08T20:12:49.881Z,60.03
2018-02-08T20:15:33.189Z,54.87
2018-02-08T20:18:00.692Z,54.77
2018-02-08T20:20:28.278Z,63.07
2018-02-08T20:22:55.742Z,58.03
2018-02-08T20:25:28.871Z,60.73
2018-02-08T20:27:56.352Z,62.13
2018-02-08T20:30:23.843Z,61.37
2018-02-08T20:32:51.374Z,64.23
2018-02-08T20:35:18.848Z,64.20
2018-02-08T20:37:46.403Z,70.03
2018-02-08T20:40:23.036Z,62.60
2018-02-08T20:42:56.187Z,66.03
2018-02-08T20:45:23.653Z,67.60
2018-02-08T20:47:51.243Z,57.90
2018-02-08T20:50:18.751Z,66.90
2018-02-08T20:52:46.220Z,69.23
2018-02-08T20:55:13.682Z,64.80
2018-02-08T20:57:41.147Z,71.23
2018-02-08T21:00:08.621Z,83.83
2018-02-08T21:02:36.088Z,77.70
2018-02-08T21:05:03.615Z,65.17
2018-02-08T21:07:31.136Z,71.07
2018-02-08T21:09:58.631Z,66.17
2018-02-08T21:12:26.106Z,71.20
2018-02-08T21:14:53.613Z,68.87
2018-02-08T21:17:21.077Z,72.40
2018-02-08T21:19:48.563Z,70.77
2018-02-08T21:22:16.038Z,74.37
2018-02-08T21:24:43.529Z,71.23
2018-02-08T21:27:11.026Z,65.00
2018-02-08T21:29:38.541Z,70.87
2018-02-08T21:32:06.057Z,70.77
2018-02-08T21:34:33.554Z,71.60
2018-02-08T21:37:01.098Z,73.57
2018-02-08T21:39:28.613Z,65.47
2018-02-08T21:41:56.088Z,77.33
2018-02-08T21:44:23.584Z,68.03
2018-02-08T21:46:51.122Z,67.03
2018-02-08T21:49:18.840Z,71.73
2018-02-08T21:51:46.368Z,81.17
2018-02-08T21:54:13.893Z,72.73
2018-02-08T21:56:41.454Z,69.67
2018-02-08T21:59:08.933Z,62.87
2018-02-08T22:01:36.432Z,67.63
2018-02-08T22:04:03.905Z,66.07
2018-02-08T22:06:31.483Z,66.27
2018-02-08T22:11:32.779Z,65.47
2018-02-08T22:14:00.275Z,73.27
2018-02-08T22:16:27.791Z,73.43
2018-02-08T22:18:55.264Z,71.10
2018-02-08T22:21:22.754Z,66.60
2018-02-08T22:23:57.833Z,80.60
2018-02-08T22:26:25.318Z,67.40
2018-02-08T22:28:52.795Z,74.10
2018-02-08T22:31:20.285Z,66.53
2018-02-08T22:33:47.813Z,83.03
2018-02-08T22:36:15.399Z,71.53
2018-02-08T22:38:42.878Z,67.57
2018-02-08T22:41:10.355Z,73.83
2018-02-08T22:43:37.877Z,67.43
2018-02-08T22:46:05.379Z,66.90
2018-02-08T22:48:32.886Z,71.80
2018-02-08T22:51:00.480Z,79.50
2018-02-08T22:53:27.970Z,82.60
2018-02-08T22:55:55.472Z,74.80
2018-02-08T22:58:22.976Z,71.20
2018-02-08T23:00:50.458Z,72.10
2018-02-08T23:03:17.944Z,73.33
2018-02-08T23:05:45.417Z,75.47
2018-02-08T23:08:12.987Z,81.77
2018-02-08T23:10:40.562Z,69.23
2018-02-08T23:13:08.045Z,78.07
2018-02-08T23:15:35.547Z,82.30
2018-02-08T23:18:03.071Z,72.23
2018-02-08T23:20:30.693Z,75.70
2018-02-08T23:22:58.202Z,83.03
2018-02-08T23:25:25.671Z,74.67
2018-02-08T23:27:53.261Z,66.30
2018-02-08T23:30:20.773Z,72.37
2018-02-08T23:32:48.245Z,68.50
2018-02-08T23:35:15.748Z,68.87
2018-02-08T23:37:43.207Z,73.63
2018-02-08T23:40:10.697Z,68.43
2018-02-08T23:42:38.174Z,68.00
2018-02-08T23:45:05.670Z,70.87
2018-02-08T23:47:33.222Z,70.97
2018-02-08T23:50:00.712Z,78.33
2018-02-08T23:52:28.257Z,71.70
2018-02-08T23:54:55.933Z,73.97
2018-02-08T23:57:23.397Z,81.40
2018-02-08T23:59:50.917Z,84.53
